sensor_id;sensor_type;location;lat;lon;timestamp;P1;durP1;ratioP1;P2;durP2;ratioP2
15061;SDS011;7630;50.306;8.566;2023-11-18T00:01:25;49.17;;;35.03;;
15061;SDS011;7630;50.306;8.566;2023-11-18T00:05:28;38.40;;;29.63;;
15061;SDS011;7630;50.306;8.566;2023-11-18T00:09:30;27.60;;;23.53;;
15061;SDS011;7630;50.306;8.566;2023-11-18T00:13:31;31.30;;;21.17;;
15061;SDS011;7630;50.306;8.566;2023-11-18T00:17:32;28.97;;;18.93;;
15061;SDS011;7630;50.306;8.566;2023-11-18T00:21:34;50.00;;;27.63;;
15061;SDS011;7630;50.306;8.566;2023-11-18T00:25:38;37.33;;;26.70;;
15061;SDS011;7630;50.306;8.566;2023-11-18T00:29:41;34.73;;;26.00;;
15061;SDS011;7630;50.306;8.566;2023-11-18T00:33:44;52.00;;;26.37;;
15061;SDS011;7630;50.306;8.566;2023-11-18T00:37:45;147.57;;;27.33;;
15061;SDS011;7630;50.306;8.566;2023-11-18T00:41:46;276.50;;;31.57;;
15061;SDS011;7630;50.306;8.566;2023-11-18T00:45:47;271.87;;;30.70;;
15061;SDS011;7630;50.306;8.566;2023-11-18T00:49:49;19.40;;;15.57;;
15061;SDS011;7630;50.306;8.566;2023-11-18T00:53:50;89.87;;;19.77;;
15061;SDS011;7630;50.306;8.566;2023-11-18T00:57:54;264.47;;;24.13;;
15061;SDS011;7630;50.306;8.566;2023-11-18T01:01:55;201.23;;;22.70;;
15061;SDS011;7630;50.306;8.566;2023-11-18T01:05:56;211.60;;;24.03;;
15061;SDS011;7630;50.306;8.566;2023-11-18T01:09:57;140.97;;;18.70;;
15061;SDS011;7630;50.306;8.566;2023-11-18T01:13:58;155.87;;;19.97;;
15061;SDS011;7630;50.306;8.566;2023-11-18T01:17:59;257.00;;;22.27;;
15061;SDS011;7630;50.306;8.566;2023-11-18T01:22:01;119.53;;;18.77;;
15061;SDS011;7630;50.306;8.566;2023-11-18T01:26:04;139.50;;;17.93;;
15061;SDS011;7630;50.306;8.566;2023-11-18T01:30:06;32.83;;;13.60;;
15061;SDS011;7630;50.306;8.566;2023-11-18T01:34:08;95.03;;;21.60;;
15061;SDS011;7630;50.306;8.566;2023-11-18T01:38:09;109.73;;;21.30;;
15061;SDS011;7630;50.306;8.566;2023-11-18T01:42:12;51.57;;;18.23;;
15061;SDS011;7630;50.306;8.566;2023-11-18T01:46:13;35.30;;;14.93;;
15061;SDS011;7630;50.306;8.566;2023-11-18T01:50:17;36.33;;;16.57;;
15061;SDS011;7630;50.306;8.566;2023-11-18T01:54:21;32.47;;;16.20;;
15061;SDS011;7630;50.306;8.566;2023-11-18T01:58:22;48.97;;;16.80;;
15061;SDS011;7630;50.306;8.566;2023-11-18T02:02:25;37.63;;;15.17;;
15061;SDS011;7630;50.306;8.566;2023-11-18T02:06:27;26.33;;;17.30;;
15061;SDS011;7630;50.306;8.566;2023-11-18T02:10:28;29.23;;;16.60;;
15061;SDS011;7630;50.306;8.566;2023-11-18T02:14:30;53.07;;;17.80;;
15061;SDS011;7630;50.306;8.566;2023-11-18T02:18:34;62.53;;;19.43;;
15061;SDS011;7630;50.306;8.566;2023-11-18T02:22:39;32.17;;;18.97;;
15061;SDS011;7630;50.306;8.566;2023-11-18T02:26:42;47.60;;;16.07;;
15061;SDS011;7630;50.306;8.566;2023-11-18T02:30:43;37.20;;;18.30;;
15061;SDS011;7630;50.306;8.566;2023-11-18T02:34:48;28.50;;;17.00;;
15061;SDS011;7630;50.306;8.566;2023-11-18T02:38:52;33.27;;;16.53;;
15061;SDS011;7630;50.306;8.566;2023-11-18T02:42:55;28.97;;;17.37;;
15061;SDS011;7630;50.306;8.566;2023-11-18T02:46:59;26.97;;;18.07;;
15061;SDS011;7630;50.306;8.566;2023-11-18T02:51:01;45.83;;;18.53;;
15061;SDS011;7630;50.306;8.566;2023-11-18T02:55:02;36.03;;;17.80;;
15061;SDS011;7630;50.306;8.566;2023-11-18T02:59:07;58.77;;;18.63;;
15061;SDS011;7630;50.306;8.566;2023-11-18T03:03:08;25.37;;;16.93;;
15061;SDS011;7630;50.306;8.566;2023-11-18T03:07:09;43.90;;;18.80;;
15061;SDS011;7630;50.306;8.566;2023-11-18T03:11:10;24.60;;;19.03;;
15061;SDS011;7630;50.306;8.566;2023-11-18T03:15:12;26.47;;;17.20;;
15061;SDS011;7630;50.306;8.566;2023-11-18T03:19:13;67.40;;;19.47;;
15061;SDS011;7630;50.306;8.566;2023-11-18T03:23:15;58.23;;;21.07;;
15061;SDS011;7630;50.306;8.566;2023-11-18T03:27:16;54.20;;;21.57;;
15061;SDS011;7630;50.306;8.566;2023-11-18T03:31:19;45.57;;;19.40;;
15061;SDS011;7630;50.306;8.566;2023-11-18T03:35:20;36.87;;;16.83;;
15061;SDS011;7630;50.306;8.566;2023-11-18T03:39:22;36.80;;;18.40;;
15061;SDS011;7630;50.306;8.566;2023-11-18T03:43:23;33.93;;;18.73;;
15061;SDS011;7630;50.306;8.566;2023-11-18T03:47:24;22.07;;;16.33;;
15061;SDS011;7630;50.306;8.566;2023-11-18T03:51:25;24.03;;;15.73;;
15061;SDS011;7630;50.306;8.566;2023-11-18T03:55:27;24.37;;;16.17;;
15061;SDS011;7630;50.306;8.566;2023-11-18T03:59:28;21.93;;;16.43;;
15061;SDS011;7630;50.306;8.566;2023-11-18T04:03:29;22.33;;;15.67;;
15061;SDS011;7630;50.306;8.566;2023-11-18T04:07:30;18.47;;;15.73;;
15061;SDS011;7630;50.306;8.566;2023-11-18T04:11:31;22.50;;;15.93;;
15061;SDS011;7630;50.306;8.566;2023-11-18T04:15:32;27.30;;;17.27;;
15061;SDS011;7630;50.306;8.566;2023-11-18T04:19:34;25.03;;;18.10;;
15061;SDS011;7630;50.306;8.566;2023-11-18T04:23:39;27.23;;;17.77;;
15061;SDS011;7630;50.306;8.566;2023-11-18T04:27:41;30.73;;;19.77;;
15061;SDS011;7630;50.306;8.566;2023-11-18T04:31:44;33.43;;;19.77;;
15061;SDS011;7630;50.306;8.566;2023-11-18T04:35:45;40.17;;;23.63;;
15061;SDS011;7630;50.306;8.566;2023-11-18T04:39:47;49.90;;;23.63;;
15061;SDS011;7630;50.306;8.566;2023-11-18T04:43:48;35.33;;;21.43;;
15061;SDS011;7630;50.306;8.566;2023-11-18T04:47:51;44.40;;;25.03;;
15061;SDS011;7630;50.306;8.566;2023-11-18T04:51:52;37.63;;;21.37;;
15061;SDS011;7630;50.306;8.566;2023-11-18T04:55:53;39.53;;;22.53;;
15061;SDS011;7630;50.306;8.566;2023-11-18T04:59:55;48.60;;;24.73;;
15061;SDS011;7630;50.306;8.566;2023-11-18T05:03:56;59.83;;;28.37;;
15061;SDS011;7630;50.306;8.566;2023-11-18T05:07:57;56.50;;;29.07;;
15061;SDS011;7630;50.306;8.566;2023-11-18T05:11:59;62.53;;;30.93;;
15061;SDS011;7630;50.306;8.566;2023-11-18T05:16:01;64.37;;;29.80;;
15061;SDS011;7630;50.306;8.566;2023-11-18T05:20:04;56.97;;;29.00;;
15061;SDS011;7630;50.306;8.566;2023-11-18T05:24:08;81.73;;;32.00;;
15061;SDS011;7630;50.306;8.566;2023-11-18T05:28:10;74.80;;;33.47;;
15061;SDS011;7630;50.306;8.566;2023-11-18T05:32:11;83.70;;;34.13;;
15061;SDS011;7630;50.306;8.566;2023-11-18T05:36:13;84.07;;;30.93;;
15061;SDS011;7630;50.306;8.566;2023-11-18T05:40:14;88.07;;;31.30;;
15061;SDS011;7630;50.306;8.566;2023-11-18T05:44:16;68.97;;;28.70;;
15061;SDS011;7630;50.306;8.566;2023-11-18T05:48:20;61.23;;;28.13;;
15061;SDS011;7630;50.306;8.566;2023-11-18T05:56:31;77.77;;;27.40;;
15061;SDS011;7630;50.306;8.566;2023-11-18T06:00:32;73.77;;;28.67;;
15061;SDS011;7630;50.306;8.566;2023-11-18T06:04:35;89.40;;;28.13;;
15061;SDS011;7630;50.306;8.566;2023-11-18T06:08:37;48.63;;;24.37;;
15061;SDS011;7630;50.306;8.566;2023-11-18T06:12:41;87.70;;;28.13;;
15061;SDS011;7630;50.306;8.566;2023-11-18T06:16:43;113.07;;;24.67;;
15061;SDS011;7630;50.306;8.566;2023-11-18T06:20:44;68.80;;;23.13;;
15061;SDS011;7630;50.306;8.566;2023-11-18T06:24:45;68.77;;;23.13;;
15061;SDS011;7630;50.306;8.566;2023-11-18T06:28:47;52.00;;;24.37;;
15061;SDS011;7630;50.306;8.566;2023-11-18T06:32:51;59.53;;;24.97;;
15061;SDS011;7630;50.306;8.566;2023-11-18T06:36:52;113.43;;;25.60;;
15061;SDS011;7630;50.306;8.566;2023-11-18T06:40:54;59.40;;;28.50;;
15061;SDS011;7630;50.306;8.566;2023-11-18T06:44:56;55.07;;;28.70;;
15061;SDS011;7630;50.306;8.566;2023-11-18T06:48:58;58.83;;;33.40;;
15061;SDS011;7630;50.306;8.566;2023-11-18T06:53:02;48.53;;;31.67;;
15061;SDS011;7630;50.306;8.566;2023-11-18T06:57:03;49.93;;;31.00;;
15061;SDS011;7630;50.306;8.566;2023-11-18T07:01:04;47.13;;;34.70;;
15061;SDS011;7630;50.306;8.566;2023-11-18T07:05:07;58.40;;;34.57;;
15061;SDS011;7630;50.306;8.566;2023-11-18T07:09:08;47.17;;;32.83;;
15061;SDS011;7630;50.306;8.566;2023-11-18T07:13:21;48.83;;;29.77;;
15061;SDS011;7630;50.306;8.566;2023-11-18T07:17:24;40.77;;;27.10;;
15061;SDS011;7630;50.306;8.566;2023-11-18T07:21:25;43.40;;;25.70;;
15061;SDS011;7630;50.306;8.566;2023-11-18T07:25:26;40.80;;;26.77;;
15061;SDS011;7630;50.306;8.566;2023-11-18T07:29:28;38.63;;;26.47;;
15061;SDS011;7630;50.306;8.566;2023-11-18T07:33:29;29.53;;;23.73;;
15061;SDS011;7630;50.306;8.566;2023-11-18T07:37:30;34.27;;;22.27;;
15061;SDS011;7630;50.306;8.566;2023-11-18T07:41:33;40.20;;;28.27;;
15061;SDS011;7630;50.306;8.566;2023-11-18T07:45:35;52.73;;;35.10;;
15061;SDS011;7630;50.306;8.566;2023-11-18T07:49:39;55.10;;;39.10;;
15061;SDS011;7630;50.306;8.566;2023-11-18T07:53:40;49.73;;;35.23;;
15061;SDS011;7630;50.306;8.566;2023-11-18T07:57:41;54.90;;;40.53;;
15061;SDS011;7630;50.306;8.566;2023-11-18T08:01:43;49.10;;;36.50;;
15061;SDS011;7630;50.306;8.566;2023-11-18T08:05:48;48.03;;;35.40;;
15061;SDS011;7630;50.306;8.566;2023-11-18T08:09:49;47.17;;;33.50;;
15061;SDS011;7630;50.306;8.566;2023-11-18T08:13:50;53.87;;;36.80;;
15061;SDS011;7630;50.306;8.566;2023-11-18T08:17:52;49.60;;;36.07;;
15061;SDS011;7630;50.306;8.566;2023-11-18T08:21:53;43.03;;;31.97;;
15061;SDS011;7630;50.306;8.566;2023-11-18T08:25:55;44.80;;;31.17;;
15061;SDS011;7630;50.306;8.566;2023-11-18T08:29:56;46.30;;;30.07;;
15061;SDS011;7630;50.306;8.566;2023-11-18T08:33:57;50.27;;;32.97;;
15061;SDS011;7630;50.306;8.566;2023-11-18T08:37:59;40.17;;;28.70;;
15061;SDS011;7630;50.306;8.566;2023-11-18T08:42:02;43.70;;;31.60;;
15061;SDS011;7630;50.306;8.566;2023-11-18T08:46:04;38.80;;;29.57;;
15061;SDS011;7630;50.306;8.566;2023-11-18T08:50:10;39.77;;;30.57;;
15061;SDS011;7630;50.306;8.566;2023-11-18T08:54:13;54.13;;;33.83;;
15061;SDS011;7630;50.306;8.566;2023-11-18T08:58:23;39.27;;;31.63;;
15061;SDS011;7630;50.306;8.566;2023-11-18T09:02:26;45.10;;;31.23;;
15061;SDS011;7630;50.306;8.566;2023-11-18T09:06:29;34.20;;;25.20;;
15061;SDS011;7630;50.306;8.566;2023-11-18T09:10:32;37.93;;;28.50;;
15061;SDS011;7630;50.306;8.566;2023-11-18T09:14:34;34.63;;;25.93;;
15061;SDS011;7630;50.306;8.566;2023-11-18T09:18:36;33.47;;;25.73;;
15061;SDS011;7630;50.306;8.566;2023-11-18T09:22:41;29.33;;;24.30;;
15061;SDS011;7630;50.306;8.566;2023-11-18T09:26:43;33.07;;;24.73;;
15061;SDS011;7630;50.306;8.566;2023-11-18T09:30:46;27.53;;;22.87;;
15061;SDS011;7630;50.306;8.566;2023-11-18T09:34:50;30.73;;;24.30;;
15061;SDS011;7630;50.306;8.566;2023-11-18T09:38:53;30.33;;;25.73;;
15061;SDS011;7630;50.306;8.566;2023-11-18T09:42:55;30.83;;;24.47;;
15061;SDS011;7630;50.306;8.566;2023-11-18T09:46:58;35.47;;;23.77;;
15061;SDS011;7630;50.306;8.566;2023-11-18T09:51:04;27.13;;;22.30;;
15061;SDS011;7630;50.306;8.566;2023-11-18T09:55:13;33.03;;;27.27;;
15061;SDS011;7630;50.306;8.566;2023-11-18T09:59:18;29.20;;;24.40;;
15061;SDS011;7630;50.306;8.566;2023-11-18T10:03:36;28.87;;;22.13;;
15061;SDS011;7630;50.306;8.566;2023-11-18T10:07:44;33.27;;;26.63;;
15061;SDS011;7630;50.306;8.566;2023-11-18T10:11:49;31.90;;;24.73;;
15061;SDS011;7630;50.306;8.566;2023-11-18T10:15:50;35.37;;;27.03;;
15061;SDS011;7630;50.306;8.566;2023-11-18T10:19:55;30.23;;;24.50;;
15061;SDS011;7630;50.306;8.566;2023-11-18T10:23:58;28.37;;;25.17;;
15061;SDS011;7630;50.306;8.566;2023-11-18T10:28:02;33.20;;;23.20;;
15061;SDS011;7630;50.306;8.566;2023-11-18T10:32:05;29.20;;;23.47;;
15061;SDS011;7630;50.306;8.566;2023-11-18T10:36:18;28.73;;;22.87;;
15061;SDS011;7630;50.306;8.566;2023-11-18T10:40:24;30.83;;;22.90;;
15061;SDS011;7630;50.306;8.566;2023-11-18T10:44:25;31.83;;;24.93;;
15061;SDS011;7630;50.306;8.566;2023-11-18T10:48:26;35.10;;;22.63;;
15061;SDS011;7630;50.306;8.566;2023-11-18T10:52:28;34.57;;;23.57;;
15061;SDS011;7630;50.306;8.566;2023-11-18T10:56:32;33.37;;;24.93;;
15061;SDS011;7630;50.306;8.566;2023-11-18T11:00:46;31.70;;;22.07;;
15061;SDS011;7630;50.306;8.566;2023-11-18T11:04:58;34.57;;;24.20;;
15061;SDS011;7630;50.306;8.566;2023-11-18T11:08:59;32.67;;;24.33;;
15061;SDS011;7630;50.306;8.566;2023-11-18T11:13:01;32.63;;;22.73;;
15061;SDS011;7630;50.306;8.566;2023-11-18T11:17:06;31.63;;;20.37;;
15061;SDS011;7630;50.306;8.566;2023-11-18T11:21:14;36.30;;;23.43;;
15061;SDS011;7630;50.306;8.566;2023-11-18T11:25:22;37.30;;;22.93;;
15061;SDS011;7630;50.306;8.566;2023-11-18T11:33:33;41.93;;;24.83;;
15061;SDS011;7630;50.306;8.566;2023-11-18T11:37:43;45.10;;;24.20;;
15061;SDS011;7630;50.306;8.566;2023-11-18T11:41:45;39.87;;;26.00;;
15061;SDS011;7630;50.306;8.566;2023-11-18T11:45:49;53.00;;;28.93;;
15061;SDS011;7630;50.306;8.566;2023-11-18T11:49:55;60.03;;;29.67;;
15061;SDS011;7630;50.306;8.566;2023-11-18T11:54:11;80.57;;;29.57;;
15061;SDS011;7630;50.306;8.566;2023-11-18T11:58:29;114.73;;;33.73;;
15061;SDS011;7630;50.306;8.566;2023-11-18T12:02:34;146.73;;;34.63;;
15061;SDS011;7630;50.306;8.566;2023-11-18T12:06:45;129.90;;;35.17;;
15061;SDS011;7630;50.306;8.566;2023-11-18T12:10:50;128.57;;;36.10;;
15061;SDS011;7630;50.306;8.566;2023-11-18T12:14:57;150.93;;;57.90;;
15061;SDS011;7630;50.306;8.566;2023-11-18T12:23:26;62.67;;;31.87;;
15061;SDS011;7630;50.306;8.566;2023-11-18T12:31:46;89.80;;;37.20;;
15061;SDS011;7630;50.306;8.566;2023-11-18T12:44:29;135.00;;;39.20;;
15061;SDS011;7630;50.306;8.566;2023-11-18T12:48:24;75.47;;;41.57;;
15061;SDS011;7630;50.306;8.566;2023-11-18T12:52:29;66.60;;;36.77;;
15061;SDS011;7630;50.306;8.566;2023-11-18T12:56:30;101.13;;;38.43;;
15061;SDS011;7630;50.306;8.566;2023-11-18T13:00:32;74.43;;;38.23;;
15061;SDS011;7630;50.306;8.566;2023-11-18T13:04:34;62.30;;;36.60;;
15061;SDS011;7630;50.306;8.566;2023-11-18T13:08:36;53.57;;;34.93;;
15061;SDS011;7630;50.306;8.566;2023-11-18T13:12:37;49.37;;;32.87;;
15061;SDS011;7630;50.306;8.566;2023-11-18T13:16:39;51.03;;;33.93;;
15061;SDS011;7630;50.306;8.566;2023-11-18T13:20:53;45.27;;;32.33;;
15061;SDS011;7630;50.306;8.566;2023-11-18T13:24:47;40.60;;;29.50;;
15061;SDS011;7630;50.306;8.566;2023-11-18T13:28:50;44.90;;;28.70;;
15061;SDS011;7630;50.306;8.566;2023-11-18T13:32:51;39.23;;;30.47;;
15061;SDS011;7630;50.306;8.566;2023-11-18T13:36:52;43.90;;;29.17;;
15061;SDS011;7630;50.306;8.566;2023-11-18T13:40:54;45.00;;;30.83;;
15061;SDS011;7630;50.306;8.566;2023-11-18T13:45:04;39.90;;;30.70;;
15061;SDS011;7630;50.306;8.566;2023-11-18T13:49:04;50.33;;;33.43;;
15061;SDS011;7630;50.306;8.566;2023-11-18T13:53:06;45.27;;;35.07;;
15061;SDS011;7630;50.306;8.566;2023-11-18T13:57:08;46.40;;;35.53;;
15061;SDS011;7630;50.306;8.566;2023-11-18T14:01:10;46.03;;;33.00;;
15061;SDS011;7630;50.306;8.566;2023-11-18T14:05:16;41.80;;;29.17;;
15061;SDS011;7630;50.306;8.566;2023-11-18T14:09:17;53.10;;;38.47;;
15061;SDS011;7630;50.306;8.566;2023-11-18T14:13:20;49.23;;;30.53;;
15061;SDS011;7630;50.306;8.566;2023-11-18T14:17:22;40.63;;;31.90;;
15061;SDS011;7630;50.306;8.566;2023-11-18T14:21:23;47.63;;;34.67;;
15061;SDS011;7630;50.306;8.566;2023-11-18T14:25:26;49.97;;;36.17;;
15061;SDS011;7630;50.306;8.566;2023-11-18T14:29:28;60.10;;;38.27;;
15061;SDS011;7630;50.306;8.566;2023-11-18T14:33:30;78.30;;;39.77;;
15061;SDS011;7630;50.306;8.566;2023-11-18T14:37:33;58.00;;;39.03;;
15061;SDS011;7630;50.306;8.566;2023-11-18T14:41:34;74.73;;;40.90;;
15061;SDS011;7630;50.306;8.566;2023-11-18T14:45:35;57.50;;;40.60;;
15061;SDS011;7630;50.306;8.566;2023-11-18T14:49:38;59.23;;;38.93;;
15061;SDS011;7630;50.306;8.566;2023-11-18T14:53:39;48.10;;;37.07;;
15061;SDS011;7630;50.306;8.566;2023-11-18T14:57:40;54.50;;;38.73;;
15061;SDS011;7630;50.306;8.566;2023-11-18T15:01:47;50.33;;;39.47;;
15061;SDS011;7630;50.306;8.566;2023-11-18T15:05:49;50.20;;;42.43;;
15061;SDS011;7630;50.306;8.566;2023-11-18T15:09:50;55.97;;;45.83;;
15061;SDS011;7630;50.306;8.566;2023-11-18T15:13:52;45.17;;;38.40;;
15061;SDS011;7630;50.306;8.566;2023-11-18T15:17:53;45.57;;;38.00;;
15061;SDS011;7630;50.306;8.566;2023-11-18T15:21:54;51.03;;;37.73;;
15061;SDS011;7630;50.306;8.566;2023-11-18T15:25:55;40.73;;;36.33;;
15061;SDS011;7630;50.306;8.566;2023-11-18T15:29:57;43.57;;;35.87;;
15061;SDS011;7630;50.306;8.566;2023-11-18T15:33:58;37.60;;;33.60;;
15061;SDS011;7630;50.306;8.566;2023-11-18T15:38:00;34.30;;;30.83;;
15061;SDS011;7630;50.306;8.566;2023-11-18T15:42:02;34.40;;;30.80;;
15061;SDS011;7630;50.306;8.566;2023-11-18T15:46:05;32.30;;;29.17;;
15061;SDS011;7630;50.306;8.566;2023-11-18T15:50:07;43.27;;;38.73;;
15061;SDS011;7630;50.306;8.566;2023-11-18T15:54:11;40.10;;;35.80;;
15061;SDS011;7630;50.306;8.566;2023-11-18T15:58:14;35.70;;;31.10;;
15061;SDS011;7630;50.306;8.566;2023-11-18T16:02:17;33.63;;;30.33;;
15061;SDS011;7630;50.306;8.566;2023-11-18T16:06:18;30.53;;;27.70;;
15061;SDS011;7630;50.306;8.566;2023-11-18T16:10:19;37.63;;;34.07;;
15061;SDS011;7630;50.306;8.566;2023-11-18T16:14:22;33.07;;;29.73;;
15061;SDS011;7630;50.306;8.566;2023-11-18T16:18:23;30.83;;;27.73;;
15061;SDS011;7630;50.306;8.566;2023-11-18T16:22:24;30.47;;;27.27;;
15061;SDS011;7630;50.306;8.566;2023-11-18T16:26:25;30.20;;;27.40;;
15061;SDS011;7630;50.306;8.566;2023-11-18T16:30:26;31.17;;;28.03;;
15061;SDS011;7630;50.306;8.566;2023-11-18T16:34:31;26.93;;;24.33;;
15061;SDS011;7630;50.306;8.566;2023-11-18T16:38:32;26.63;;;23.87;;
15061;SDS011;7630;50.306;8.566;2023-11-18T16:42:33;22.43;;;20.30;;
15061;SDS011;7630;50.306;8.566;2023-11-18T16:46:38;21.27;;;19.27;;
15061;SDS011;7630;50.306;8.566;2023-11-18T16:50:43;20.37;;;18.57;;
15061;SDS011;7630;50.306;8.566;2023-11-18T16:54:44;20.57;;;18.77;;
15061;SDS011;7630;50.306;8.566;2023-11-18T16:58:45;26.87;;;24.43;;
15061;SDS011;7630;50.306;8.566;2023-11-18T17:02:47;22.40;;;18.40;;
15061;SDS011;7630;50.306;8.566;2023-11-18T17:06:59;19.97;;;18.00;;
15061;SDS011;7630;50.306;8.566;2023-11-18T17:11:00;20.37;;;18.27;;
15061;SDS011;7630;50.306;8.566;2023-11-18T17:15:01;21.37;;;16.73;;
15061;SDS011;7630;50.306;8.566;2023-11-18T17:19:02;17.33;;;15.73;;
15061;SDS011;7630;50.306;8.566;2023-11-18T17:23:05;15.80;;;14.37;;
15061;SDS011;7630;50.306;8.566;2023-11-18T17:27:06;17.87;;;16.07;;
15061;SDS011;7630;50.306;8.566;2023-11-18T17:31:07;14.37;;;12.90;;
15061;SDS011;7630;50.306;8.566;2023-11-18T17:35:10;15.80;;;14.20;;
15061;SDS011;7630;50.306;8.566;2023-11-18T17:39:15;14.30;;;13.10;;
15061;SDS011;7630;50.306;8.566;2023-11-18T17:43:18;13.40;;;12.20;;
15061;SDS011;7630;50.306;8.566;2023-11-18T17:47:19;13.57;;;12.27;;
15061;SDS011;7630;50.306;8.566;2023-11-18T17:51:20;11.57;;;9.97;;
15061;SDS011;7630;50.306;8.566;2023-11-18T17:55:23;10.90;;;10.00;;
15061;SDS011;7630;50.306;8.566;2023-11-18T17:59:24;9.20;;;8.40;;
15061;SDS011;7630;50.306;8.566;2023-11-18T18:03:26;9.60;;;8.73;;
15061;SDS011;7630;50.306;8.566;2023-11-18T18:07:27;8.67;;;7.93;;
15061;SDS011;7630;50.306;8.566;2023-11-18T18:11:28;12.07;;;10.43;;
15061;SDS011;7630;50.306;8.566;2023-11-18T18:15:30;12.00;;;10.90;;
15061;SDS011;7630;50.306;8.566;2023-11-18T18:19:31;10.57;;;9.57;;
15061;SDS011;7630;50.306;8.566;2023-11-18T18:23:33;10.03;;;9.03;;
15061;SDS011;7630;50.306;8.566;2023-11-18T18:27:34;10.80;;;9.90;;
15061;SDS011;7630;50.306;8.566;2023-11-18T18:31:35;14.03;;;12.30;;
15061;SDS011;7630;50.306;8.566;2023-11-18T18:35:36;18.77;;;14.73;;
15061;SDS011;7630;50.306;8.566;2023-11-18T18:39:40;13.90;;;12.70;;
15061;SDS011;7630;50.306;8.566;2023-11-18T18:43:41;12.97;;;10.93;;
15061;SDS011;7630;50.306;8.566;2023-11-18T18:47:43;12.50;;;11.50;;
15061;SDS011;7630;50.306;8.566;2023-11-18T18:51:44;12.87;;;11.53;;
15061;SDS011;7630;50.306;8.566;2023-11-18T18:55:45;12.60;;;11.50;;
15061;SDS011;7630;50.306;8.566;2023-11-18T18:59:46;14.23;;;12.93;;
15061;SDS011;7630;50.306;8.566;2023-11-18T19:03:47;13.83;;;12.63;;
15061;SDS011;7630;50.306;8.566;2023-11-18T19:07:49;14.73;;;13.43;;
15061;SDS011;7630;50.306;8.566;2023-11-18T19:11:53;12.80;;;11.57;;
15061;SDS011;7630;50.306;8.566;2023-11-18T19:15:54;11.80;;;10.80;;
15061;SDS011;7630;50.306;8.566;2023-11-18T19:19:55;11.80;;;10.57;;
15061;SDS011;7630;50.306;8.566;2023-11-18T19:23:56;9.37;;;8.60;;
15061;SDS011;7630;50.306;8.566;2023-11-18T19:27:58;12.80;;;11.67;;
15061;SDS011;7630;50.306;8.566;2023-11-18T19:31:59;11.83;;;10.87;;
15061;SDS011;7630;50.306;8.566;2023-11-18T19:36:00;11.70;;;10.70;;
15061;SDS011;7630;50.306;8.566;2023-11-18T19:40:02;9.87;;;9.07;;
15061;SDS011;7630;50.306;8.566;2023-11-18T19:44:07;10.70;;;9.80;;
15061;SDS011;7630;50.306;8.566;2023-11-18T19:48:08;9.47;;;8.63;;
15061;SDS011;7630;50.306;8.566;2023-11-18T19:52:10;10.90;;;9.90;;
15061;SDS011;7630;50.306;8.566;2023-11-18T19:56:11;10.93;;;10.03;;
15061;SDS011;7630;50.306;8.566;2023-11-18T20:00:14;10.67;;;9.00;;
15061;SDS011;7630;50.306;8.566;2023-11-18T20:04:17;9.67;;;8.97;;
15061;SDS011;7630;50.306;8.566;2023-11-18T20:08:19;9.43;;;8.63;;
15061;SDS011;7630;50.306;8.566;2023-11-18T20:12:20;9.77;;;8.97;;
15061;SDS011;7630;50.306;8.566;2023-11-18T20:16:22;7.50;;;6.90;;
15061;SDS011;7630;50.306;8.566;2023-11-18T20:20:24;8.93;;;8.23;;
15061;SDS011;7630;50.306;8.566;2023-11-18T20:24:25;7.53;;;6.93;;
15061;SDS011;7630;50.306;8.566;2023-11-18T20:28:26;8.03;;;7.43;;
15061;SDS011;7630;50.306;8.566;2023-11-18T20:32:27;6.10;;;5.70;;
15061;SDS011;7630;50.306;8.566;2023-11-18T20:36:29;8.33;;;7.53;;
15061;SDS011;7630;50.306;8.566;2023-11-18T20:40:31;6.87;;;6.37;;
15061;SDS011;7630;50.306;8.566;2023-11-18T20:44:32;6.20;;;5.73;;
15061;SDS011;7630;50.306;8.566;2023-11-18T20:48:35;8.17;;;7.57;;
15061;SDS011;7630;50.306;8.566;2023-11-18T20:52:36;7.57;;;6.97;;
15061;SDS011;7630;50.306;8.566;2023-11-18T20:56:37;7.93;;;7.33;;
15061;SDS011;7630;50.306;8.566;2023-11-18T21:00:38;8.17;;;7.57;;
15061;SDS011;7630;50.306;8.566;2023-11-18T21:04:40;9.30;;;8.33;;
15061;SDS011;7630;50.306;8.566;2023-11-18T21:08:41;8.27;;;7.57;;
15061;SDS011;7630;50.306;8.566;2023-11-18T21:12:43;9.40;;;8.63;;
15061;SDS011;7630;50.306;8.566;2023-11-18T21:16:44;8.33;;;7.73;;
15061;SDS011;7630;50.306;8.566;2023-11-18T21:20:46;7.93;;;7.30;;
15061;SDS011;7630;50.306;8.566;2023-11-18T21:24:48;8.43;;;7.73;;
15061;SDS011;7630;50.306;8.566;2023-11-18T21:28:49;8.83;;;8.13;;
15061;SDS011;7630;50.306;8.566;2023-11-18T21:32:51;10.70;;;9.70;;
15061;SDS011;7630;50.306;8.566;2023-11-18T21:36:53;10.97;;;9.87;;
15061;SDS011;7630;50.306;8.566;2023-11-18T21:40:54;10.30;;;9.40;;
15061;SDS011;7630;50.306;8.566;2023-11-18T21:44:55;10.90;;;10.00;;
15061;SDS011;7630;50.306;8.566;2023-11-18T21:48:56;11.00;;;10.00;;
15061;SDS011;7630;50.306;8.566;2023-11-18T21:52:58;12.87;;;11.77;;
15061;SDS011;7630;50.306;8.566;2023-11-18T21:56:59;13.37;;;12.13;;
15061;SDS011;7630;50.306;8.566;2023-11-18T22:01:00;13.17;;;12.03;;
15061;SDS011;7630;50.306;8.566;2023-11-18T22:05:01;14.80;;;13.53;;
15061;SDS011;7630;50.306;8.566;2023-11-18T22:09:03;15.10;;;13.80;;
15061;SDS011;7630;50.306;8.566;2023-11-18T22:13:05;15.13;;;13.70;;
15061;SDS011;7630;50.306;8.566;2023-11-18T22:17:07;16.10;;;14.50;;
15061;SDS011;7630;50.306;8.566;2023-11-18T22:21:08;14.53;;;13.13;;
15061;SDS011;7630;50.306;8.566;2023-11-18T22:25:09;15.87;;;14.43;;
15061;SDS011;7630;50.306;8.566;2023-11-18T22:29:13;14.80;;;13.27;;
15061;SDS011;7630;50.306;8.566;2023-11-18T22:33:15;14.80;;;13.30;;
15061;SDS011;7630;50.306;8.566;2023-11-18T22:37:18;11.90;;;10.80;;
15061;SDS011;7630;50.306;8.566;2023-11-18T22:41:19;12.83;;;11.60;;
15061;SDS011;7630;50.306;8.566;2023-11-18T22:45:20;14.20;;;12.83;;
15061;SDS011;7630;50.306;8.566;2023-11-18T22:49:23;11.90;;;10.80;;
15061;SDS011;7630;50.306;8.566;2023-11-18T22:53:24;14.57;;;12.77;;
15061;SDS011;7630;50.306;8.566;2023-11-18T22:57:25;13.73;;;12.43;;
15061;SDS011;7630;50.306;8.566;2023-11-18T23:01:26;12.90;;;11.70;;
15061;SDS011;7630;50.306;8.566;2023-11-18T23:05:27;11.50;;;10.40;;
15061;SDS011;7630;50.306;8.566;2023-11-18T23:09:29;10.37;;;9.47;;
15061;SDS011;7630;50.306;8.566;2023-11-18T23:13:30;11.77;;;10.67;;
15061;SDS011;7630;50.306;8.566;2023-11-18T23:17:31;11.97;;;10.77;;
15061;SDS011;7630;50.306;8.566;2023-11-18T23:21:34;12.63;;;10.93;;
15061;SDS011;7630;50.306;8.566;2023-11-18T23:25:36;13.07;;;11.90;;
15061;SDS011;7630;50.306;8.566;2023-11-18T23:29:37;11.93;;;10.83;;
15061;SDS011;7630;50.306;8.566;2023-11-18T23:33:38;13.87;;;12.67;;
15061;SDS011;7630;50.306;8.566;2023-11-18T23:37:39;14.17;;;12.77;;
15061;SDS011;7630;50.306;8.566;2023-11-18T23:41:42;13.17;;;11.97;;
15061;SDS011;7630;50.306;8.566;2023-11-18T23:45:43;13.30;;;12.10;;
15061;SDS011;7630;50.306;8.566;2023-11-18T23:49:45;14.03;;;12.73;;
15061;SDS011;7630;50.306;8.566;2023-11-18T23:53:46;14.50;;;13.00;;
15061;SDS011;7630;50.306;8.566;2023-11-18T23:57:47;12.60;;;11.40;;
